Terminal Aerodrome Forecast
Issued by NWS Charleston, WV

Current Version | Previous Version | Graphics & Text | Print | Product List | Glossary On
Versions: 1 2 3 4 5 6 7 8 9 10 11 12 13 14 15 16 17 18 19 20 21 22 23 24 25 26 27
000
FTUS41 KRLX 202100 AAA
TAFBKW
TAF AMD
KBKW 202111Z 2021/2118 14006KT P6SM SCT045 BKN080
     FM202300 17005KT P6SM SCT100
     FM211400 24009KT P6SM BKN030
     FM211600 26010G15KT 6SM SHRA BR VCTS BKN025CB=

USA.gov is the U.S. government's official web portal to all federal, state and local government web resources and services.